createdAt,value
2022-12-19T00:02:45.442Z,19.60
2022-12-19T00:06:49.558Z,18.37
2022-12-19T00:10:56.414Z,19.05
2022-12-19T00:14:58.140Z,19.02
2022-12-19T00:19:01.631Z,19.62
2022-12-19T00:23:03.240Z,19.73
2022-12-19T00:27:05.069Z,19.80
2022-12-19T00:31:07.110Z,19.80
2022-12-19T00:35:09.229Z,18.48
2022-12-19T00:39:11.578Z,19.55
2022-12-19T00:43:13.215Z,21.08
2022-12-19T00:47:14.831Z,19.55
2022-12-19T00:51:20.053Z,20.02
2022-12-19T00:55:21.701Z,19.33
2022-12-19T00:59:26.820Z,21.17
2022-12-19T01:03:28.728Z,19.40
2022-12-19T01:07:30.348Z,18.75
2022-12-19T01:11:50.786Z,19.58
2022-12-19T01:15:52.495Z,18.55
2022-12-19T01:19:54.146Z,19.27
2022-12-19T01:23:55.844Z,19.65
2022-12-19T01:27:57.503Z,18.73
2022-12-19T01:31:59.190Z,20.40
2022-12-19T01:36:07.463Z,20.27
2022-12-19T01:40:11.446Z,20.17
2022-12-19T01:44:13.091Z,20.17
2022-12-19T01:48:30.587Z,18.90
2022-12-19T01:52:32.960Z,18.27
2022-12-19T01:56:38.641Z,19.08
2022-12-19T02:00:44.402Z,20.05
2022-12-19T02:04:47.761Z,18.70
2022-12-19T02:08:50.340Z,17.92
2022-12-19T02:12:52.174Z,19.27
2022-12-19T02:17:32.651Z,18.55
2022-12-19T02:21:47.505Z,18.05
2022-12-19T02:30:34.163Z,17.75
2022-12-19T02:35:11.564Z,20.10
2022-12-19T02:39:20.010Z,19.25
2022-12-19T02:43:23.817Z,17.75
2022-12-19T02:47:26.267Z,16.25
2022-12-19T02:51:27.935Z,15.20
2022-12-19T02:55:35.303Z,17.98
2022-12-19T03:00:03.484Z,18.83
2022-12-19T03:04:23.959Z,17.65
2022-12-19T03:08:32.479Z,17.62
2022-12-19T03:13:08.300Z,17.33
2022-12-19T03:17:10.266Z,16.90
2022-12-19T03:21:26.671Z,17.95
2022-12-19T03:25:30.526Z,16.85
2022-12-19T03:29:37.788Z,16.80
2022-12-19T03:33:41.300Z,17.10
2022-12-19T03:37:44.375Z,16.80
2022-12-19T03:42:05.015Z,17.20
2022-12-19T03:46:14.063Z,17.83
2022-12-19T03:50:16.077Z,17.27
2022-12-19T03:54:26.835Z,16.75
2022-12-19T03:58:33.810Z,17.80
2022-12-19T04:02:39.458Z,17.58
2022-12-19T04:06:43.571Z,16.77
2022-12-19T04:10:51.714Z,18.30
2022-12-19T04:14:53.399Z,17.37
2022-12-19T04:19:03.153Z,18.92
2022-12-19T04:23:07.057Z,18.08
2022-12-19T04:27:10.555Z,18.52
2022-12-19T04:31:15.172Z,18.12
2022-12-19T04:35:17.392Z,18.52
2022-12-19T04:39:19.130Z,17.05
2022-12-19T04:43:20.779Z,17.95
2022-12-19T04:47:22.609Z,19.87
2022-12-19T04:51:24.216Z,19.80
2022-12-19T04:55:25.855Z,19.12
2022-12-19T04:59:27.636Z,19.85
2022-12-19T05:03:29.568Z,19.90
2022-12-19T05:07:31.672Z,20.77
2022-12-19T05:11:33.342Z,21.37
2022-12-19T05:15:35.133Z,20.70
2022-12-19T05:19:36.784Z,19.02
2022-12-19T05:23:38.719Z,20.98
2022-12-19T05:27:40.413Z,22.02
2022-12-19T05:31:42.503Z,21.05
2022-12-19T05:35:44.220Z,21.55
2022-12-19T05:39:45.900Z,21.15
2022-12-19T05:43:55.495Z,21.50
2022-12-19T05:48:01.174Z,19.87
2022-12-19T05:52:03.239Z,21.58
2022-12-19T05:56:13.634Z,23.45
2022-12-19T06:00:16.360Z,22.05
2022-12-19T06:04:18.046Z,21.27
2022-12-19T06:08:19.656Z,23.45
2022-12-19T06:12:21.356Z,20.37
2022-12-19T06:16:23.586Z,21.85
2022-12-19T06:20:25.359Z,20.58
2022-12-19T06:24:27.156Z,21.90
2022-12-19T06:28:30.292Z,22.87
2022-12-19T06:32:36.310Z,22.42
2022-12-19T06:36:39.617Z,21.05
2022-12-19T06:41:03.594Z,20.30
2022-12-19T06:45:05.614Z,20.02
2022-12-19T06:49:07.973Z,19.58
2022-12-19T06:53:09.675Z,20.48
2022-12-19T06:57:11.476Z,21.25
2022-12-19T07:01:38.537Z,19.87
2022-12-19T07:05:40.678Z,19.15
2022-12-19T07:09:42.464Z,19.00
2022-12-19T07:13:44.089Z,20.42
2022-12-19T07:17:45.731Z,19.02
2022-12-19T07:21:47.746Z,18.05
2022-12-19T07:25:49.606Z,19.48
2022-12-19T07:29:51.261Z,18.23
2022-12-19T07:33:52.903Z,16.80
2022-12-19T07:37:54.595Z,17.65
2022-12-19T07:41:56.207Z,19.30
2022-12-19T07:45:57.869Z,18.35
2022-12-19T07:49:59.622Z,17.85
2022-12-19T07:54:01.295Z,15.82
2022-12-19T07:58:03.821Z,16.48
2022-12-19T08:02:05.891Z,16.42
2022-12-19T08:06:08.768Z,16.42
2022-12-19T08:10:14.979Z,16.30
2022-12-19T08:14:16.706Z,16.03
2022-12-19T08:18:18.381Z,17.50
2022-12-19T08:22:20.078Z,15.90
2022-12-19T08:26:25.623Z,16.15
2022-12-19T08:30:27.394Z,16.55
2022-12-19T08:34:29.324Z,16.05
2022-12-19T08:38:30.947Z,17.10
2022-12-19T08:42:33.455Z,16.65
2022-12-19T08:46:35.194Z,15.88
2022-12-19T08:50:36.956Z,16.67
2022-12-19T08:54:38.815Z,17.02
2022-12-19T08:58:40.649Z,15.77
2022-12-19T09:02:42.790Z,15.52
2022-12-19T09:06:44.719Z,15.63
2022-12-19T09:10:46.354Z,15.90
2022-12-19T09:14:48.095Z,16.10
2022-12-19T09:18:52.002Z,14.73
2022-12-19T09:22:53.774Z,17.50
2022-12-19T09:26:55.452Z,15.80
2022-12-19T09:31:01.537Z,15.43
2022-12-19T09:35:03.285Z,15.50
2022-12-19T09:39:04.939Z,16.08
2022-12-19T09:43:22.862Z,15.80
2022-12-19T09:47:30.524Z,14.55
2022-12-19T09:51:50.656Z,15.25
2022-12-19T09:55:53.842Z,14.27
2022-12-19T10:00:01.309Z,14.68
2022-12-19T10:04:12.339Z,14.65
2022-12-19T10:08:34.080Z,13.98
2022-12-19T10:13:12.829Z,14.05
2022-12-19T10:17:25.187Z,14.23
2022-12-19T10:22:16.458Z,13.75
2022-12-19T10:26:20.795Z,14.32
2022-12-19T10:30:23.426Z,14.10
2022-12-19T10:34:38.531Z,14.35
2022-12-19T10:39:09.021Z,13.62
2022-12-19T10:47:37.024Z,13.38
2022-12-19T10:51:38.849Z,13.68
2022-12-19T10:55:44.382Z,13.52
2022-12-19T10:59:59.993Z,13.25
2022-12-19T11:04:31.342Z,13.25
2022-12-19T11:08:37.095Z,13.43
2022-12-19T11:16:22.927Z,13.25
2022-12-19T11:23:08.313Z,12.95
2022-12-19T11:26:32.704Z,13.50
2022-12-19T11:29:38.396Z,13.18
2022-12-19T11:35:44.730Z,13.13
2022-12-19T11:40:04.021Z,12.93
2022-12-19T11:44:13.665Z,12.90
2022-12-19T11:48:49.710Z,11.90
2022-12-19T11:53:19.198Z,12.23
2022-12-19T11:57:21.271Z,12.23
2022-12-19T12:01:44.955Z,12.37
2022-12-19T12:05:49.288Z,11.40
2022-12-19T12:15:23.532Z,10.95
2022-12-19T12:26:19.094Z,11.43
2022-12-19T12:31:17.626Z,11.77
2022-12-19T12:31:18.864Z,11.48
2022-12-19T12:31:46.047Z,11.12
2022-12-19T12:35:34.423Z,10.95
2022-12-19T12:38:27.098Z,12.30
2022-12-19T12:42:32.405Z,9.95
2022-12-19T12:46:49.877Z,10.82
2022-12-19T12:50:55.346Z,10.63
2022-12-19T12:54:57.993Z,9.77
2022-12-19T12:59:22.950Z,9.60
2022-12-19T13:03:27.877Z,9.93
2022-12-19T13:07:42.786Z,10.20
2022-12-19T13:12:09.193Z,9.43
2022-12-19T13:16:44.976Z,9.73
2022-12-19T13:20:48.001Z,9.68
2022-12-19T13:24:54.249Z,9.52
2022-12-19T13:29:26.958Z,9.80
2022-12-19T13:33:56.429Z,10.15
2022-12-19T13:39:49.183Z,9.60
2022-12-19T13:43:26.040Z,9.88
2022-12-19T13:47:36.102Z,8.68
2022-12-19T13:51:51.238Z,7.75
2022-12-19T13:56:12.916Z,8.25
2022-12-19T14:00:20.633Z,9.07
2022-12-19T14:04:25.240Z,9.20
2022-12-19T14:08:28.711Z,9.00
2022-12-19T14:13:47.435Z,8.50
2022-12-19T14:17:22.192Z,8.45
2022-12-19T14:22:08.803Z,8.35
2022-12-19T14:28:21.289Z,7.90
2022-12-19T14:30:31.107Z,8.43
2022-12-19T14:35:31.383Z,8.75
2022-12-19T14:39:24.576Z,7.90
2022-12-19T14:50:02.451Z,7.68
2022-12-19T14:54:12.113Z,7.62
2022-12-19T14:54:22.085Z,7.75
2022-12-19T14:57:02.639Z,7.62
2022-12-19T15:01:22.980Z,7.85
2022-12-19T15:05:26.102Z,6.90
2022-12-19T15:11:04.265Z,7.72
2022-12-19T15:14:51.285Z,7.25
2022-12-19T15:18:32.870Z,7.60
2022-12-19T15:22:34.612Z,6.97
2022-12-19T15:26:47.506Z,7.43
2022-12-19T15:31:02.155Z,6.53
2022-12-19T15:35:15.894Z,6.18
2022-12-19T15:39:18.492Z,6.50
2022-12-19T15:44:01.233Z,6.57
2022-12-19T15:47:45.094Z,6.12
2022-12-19T15:51:47.039Z,7.60
2022-12-19T15:55:49.540Z,6.45
2022-12-19T15:59:51.783Z,6.95
2022-12-19T16:03:53.958Z,6.68
2022-12-19T16:07:56.849Z,6.57
2022-12-19T16:11:58.823Z,6.47
2022-12-19T16:16:01.352Z,6.53
2022-12-19T16:20:03.199Z,5.85
2022-12-19T16:24:05.090Z,5.93
2022-12-19T16:28:13.745Z,6.35
2022-12-19T16:32:15.827Z,5.78
2022-12-19T16:36:17.525Z,6.57
2022-12-19T16:40:28.135Z,5.47
2022-12-19T16:44:32.751Z,5.30
2022-12-19T16:48:35.815Z,5.47
2022-12-19T16:52:42.454Z,5.20
2022-12-19T16:56:53.710Z,5.28
2022-12-19T17:00:56.547Z,4.97
2022-12-19T17:04:58.724Z,5.25
2022-12-19T17:09:00.325Z,4.93
2022-12-19T17:13:03.124Z,5.43
2022-12-19T17:17:05.193Z,4.90
2022-12-19T17:21:07.109Z,5.03
2022-12-19T17:25:26.258Z,5.43
2022-12-19T17:29:27.898Z,5.12
2022-12-19T17:33:36.478Z,5.10
2022-12-19T17:37:38.103Z,5.03
2022-12-19T17:41:39.748Z,5.47
2022-12-19T17:45:41.748Z,5.03
2022-12-19T17:49:43.655Z,4.90
2022-12-19T17:53:46.399Z,4.65
2022-12-19T17:57:48.982Z,4.97
2022-12-19T18:01:50.885Z,5.03
2022-12-19T18:05:55.199Z,4.62
2022-12-19T18:09:57.317Z,5.78
2022-12-19T18:13:58.982Z,5.40
2022-12-19T18:18:00.584Z,5.57
2022-12-19T18:22:02.272Z,5.45
2022-12-19T18:26:03.897Z,4.70
2022-12-19T18:30:06.294Z,4.47
2022-12-19T18:34:13.071Z,5.32
2022-12-19T18:38:25.458Z,4.87
2022-12-19T18:42:27.903Z,5.47
2022-12-19T18:46:30.086Z,6.10
2022-12-19T18:50:31.881Z,4.68
2022-12-19T18:54:33.515Z,5.05
2022-12-19T18:58:35.289Z,4.87
2022-12-19T19:02:37.286Z,4.62
2022-12-19T19:06:42.160Z,4.82
2022-12-19T19:10:51.386Z,4.95
2022-12-19T19:14:53.551Z,5.15
2022-12-19T19:18:57.001Z,4.25
2022-12-19T19:22:59.333Z,4.78
2022-12-19T19:27:00.930Z,5.00
2022-12-19T19:31:02.918Z,5.35
2022-12-19T19:35:06.732Z,4.93
2022-12-19T19:39:08.507Z,4.03
2022-12-19T19:43:10.207Z,4.65
2022-12-19T19:47:12.633Z,4.10
2022-12-19T19:51:17.627Z,4.85
2022-12-19T19:55:19.578Z,4.65
2022-12-19T19:59:21.355Z,4.97
2022-12-19T20:03:23.991Z,4.30
2022-12-19T20:07:26.063Z,4.43
2022-12-19T20:11:27.833Z,4.30
2022-12-19T20:15:29.584Z,3.85
2022-12-19T20:19:31.707Z,4.12
2022-12-19T20:23:33.326Z,3.95
2022-12-19T20:27:35.074Z,4.12
2022-12-19T20:31:36.884Z,4.22
2022-12-19T20:35:38.781Z,4.20
2022-12-19T20:39:40.595Z,4.03
2022-12-19T20:43:42.488Z,3.92
2022-12-19T20:47:44.189Z,3.92
2022-12-19T20:51:47.586Z,3.72
2022-12-19T20:55:58.728Z,3.20
2022-12-19T21:00:00.482Z,3.25
2022-12-19T21:04:02.301Z,3.65
2022-12-19T21:08:04.095Z,3.35
2022-12-19T21:12:05.809Z,3.80
2022-12-19T21:16:10.955Z,3.42
2022-12-19T21:20:14.930Z,3.92
2022-12-19T21:24:16.599Z,3.33
2022-12-19T21:28:18.838Z,3.40
2022-12-19T21:32:20.619Z,3.53
2022-12-19T21:36:23.723Z,3.95
2022-12-19T21:40:25.323Z,3.25
2022-12-19T21:44:26.921Z,3.28
2022-12-19T21:48:28.576Z,2.92
2022-12-19T21:52:30.205Z,3.10
2022-12-19T21:56:38.649Z,3.58
2022-12-19T22:00:40.293Z,3.10
2022-12-19T22:04:42.199Z,3.17
2022-12-19T22:08:45.020Z,3.03
2022-12-19T22:12:46.676Z,3.00
2022-12-19T22:16:48.456Z,2.95
2022-12-19T22:20:50.330Z,3.10
2022-12-19T22:24:51.944Z,2.85
2022-12-19T22:28:55.868Z,2.67
2022-12-19T22:32:57.513Z,2.75
2022-12-19T22:36:59.277Z,2.60
2022-12-19T22:41:04.700Z,2.80
2022-12-19T22:45:06.955Z,2.47
2022-12-19T22:49:08.946Z,2.53
2022-12-19T22:53:12.847Z,2.25
2022-12-19T22:57:15.388Z,2.55
2022-12-19T23:01:26.182Z,2.65
2022-12-19T23:05:27.921Z,2.42
2022-12-19T23:09:29.570Z,2.33
2022-12-19T23:13:31.239Z,2.40
2022-12-19T23:17:32.857Z,2.50
2022-12-19T23:21:35.496Z,2.22
2022-12-19T23:25:38.889Z,2.03
2022-12-19T23:29:40.543Z,2.00
2022-12-19T23:33:42.207Z,1.83
2022-12-19T23:37:44.104Z,1.70
2022-12-19T23:41:45.718Z,1.73
2022-12-19T23:45:47.564Z,1.70
2022-12-19T23:49:49.285Z,1.90
2022-12-19T23:53:52.072Z,1.87
2022-12-19T23:57:53.780Z,1.98
